Time;durP1;ratioP1;P1;durP2;ratioP2;P2;SDS_P1;SDS_P2;PMS_P1;PMS_P2;Temp;Humidity;BMP_temperature;BMP_pressure;BME280_temperature;BME280_humidity;BME280_pressure;Samples;Min_cycle;Max_cycle;Signal;HPM_P1;HPM_P2
2021/10/24 00:00:08;;;;;;;;;13.00;13.00;;;;;13.44;51.49;101892.31;2079353;28;47261;-50
2021/10/24 00:01:09;;;;;;;;;13.40;12.60;;;;;13.44;51.48;101888.75;2077969;28;48131;-51
2021/10/24 00:02:09;;;;;;;;;15.25;13.75;;;;;13.43;51.34;101882.56;2078620;28;47962;-50
2021/10/24 00:03:10;;;;;;;;;12.50;11.25;;;;;13.44;51.57;101889.66;2088812;28;47258;-50
2021/10/24 00:04:10;;;;;;;;;11.00;11.00;;;;;13.43;51.62;101887.88;2089397;28;47315;-51
2021/10/24 00:05:11;;;;;;;;;12.50;12.25;;;;;13.44;51.57;101891.44;2086331;28;47015;-51
2021/10/24 00:06:11;;;;;;;;;11.75;11.00;;;;;13.42;51.55;101879.91;2088571;28;47214;-52
2021/10/24 00:07:12;;;;;;;;;11.75;11.75;;;;;13.40;51.31;101887.94;2087359;28;46498;-52
2021/10/24 00:08:12;;;;;;;;;12.50;12.50;;;;;13.40;51.40;101881.72;2087470;28;47524;-47
2021/10/24 00:09:13;;;;;;;;;11.75;11.75;;;;;13.39;51.67;101879.97;2082262;28;46359;-49
2021/10/24 00:10:14;;;;;;;;;14.25;13.50;;;;;13.38;51.66;101878.19;2074212;28;46335;-48
2021/10/24 00:11:14;;;;;;;;;14.00;14.00;;;;;13.37;51.54;101872.00;2077876;28;47395;-47
2021/10/24 00:12:18;;;;;;;;;13.00;13.00;;;;;13.37;51.59;101884.44;2087469;28;47216;-50
2021/10/24 00:13:19;;;;;;;;;15.00;15.00;;;;;13.37;51.64;101877.31;2085550;28;46316;-49
2021/10/24 00:14:19;;;;;;;;;12.50;12.50;;;;;13.37;51.66;101874.66;2082643;28;48645;-49
2021/10/24 00:15:20;;;;;;;;;13.75;13.00;;;;;13.35;51.60;101873.81;2082120;28;46057;-47
2021/10/24 00:16:20;;;;;;;;;12.50;11.25;;;;;13.34;51.83;101874.72;2088282;28;47723;-49
2021/10/24 00:17:21;;;;;;;;;16.00;14.75;;;;;13.35;51.61;101872.94;2085915;28;47344;-48
2021/10/24 00:18:22;;;;;;;;;13.25;13.25;;;;;13.34;51.79;101873.78;2082449;28;47204;-46
2021/10/24 00:19:23;;;;;;;;;12.20;12.20;;;;;13.33;51.79;101877.38;2082238;28;46660;-49
2021/10/24 00:20:23;;;;;;;;;14.50;12.25;;;;;13.33;51.64;101872.91;2087942;28;47250;-48
2021/10/24 00:21:24;;;;;;;;;12.00;11.75;;;;;13.32;51.71;101867.59;2086258;28;47368;-48
2021/10/24 00:22:24;;;;;;;;;12.25;11.00;;;;;13.31;51.53;101866.72;2081187;28;47400;-50
2021/10/24 00:23:25;;;;;;;;;13.75;13.75;;;;;13.30;51.63;101864.09;2071935;28;47911;-49
2021/10/24 00:24:25;;;;;;;;;13.75;12.00;;;;;13.29;51.54;101862.34;2078608;28;45592;-48
2021/10/24 00:25:26;;;;;;;;;15.25;14.00;;;;;13.28;51.74;101864.13;2080617;28;46407;-49
2021/10/24 00:26:27;;;;;;;;;9.60;8.40;;;;;13.28;51.65;101865.91;2074092;28;45197;-49
2021/10/24 00:27:28;;;;;;;;;13.25;12.25;;;;;13.27;51.71;101866.81;2082129;28;48268;-50
2021/10/24 00:28:28;;;;;;;;;13.00;13.00;;;;;13.27;51.64;101861.47;2078816;28;47894;-54
2021/10/24 00:29:29;;;;;;;;;11.50;10.75;;;;;13.25;51.76;101862.38;2079094;28;47208;-50
2021/10/24 00:30:29;;;;;;;;;13.75;13.75;;;;;13.25;51.66;101864.16;2087034;28;45356;-49
2021/10/24 00:31:30;;;;;;;;;13.00;12.25;;;;;13.24;51.57;101868.63;2088466;28;45402;-50
2021/10/24 00:32:30;;;;;;;;;13.00;13.00;;;;;13.24;51.62;101859.75;2080628;28;47169;-50
2021/10/24 00:33:31;;;;;;;;;12.00;12.00;;;;;13.23;51.75;101869.53;2080160;28;48095;-47
2021/10/24 00:34:32;;;;;;;;;15.50;15.50;;;;;13.24;51.71;101867.75;2086977;28;48112;-50
2021/10/24 00:35:33;;;;;;;;;16.40;14.60;;;;;13.23;51.76;101865.97;2085884;28;47578;-48
2021/10/24 00:36:34;;;;;;;;;17.60;16.00;;;;;13.22;51.90;101858.88;2086358;28;47836;-49
2021/10/24 00:37:34;;;;;;;;;13.00;12.00;;;;;13.21;51.76;101855.34;2087776;28;46962;-48
2021/10/24 00:38:35;;;;;;;;;14.00;14.00;;;;;13.22;51.86;101864.22;2088213;28;45500;-48
2021/10/24 00:39:35;;;;;;;;;15.75;13.50;;;;;13.21;52.01;101858.00;2087310;28;46923;-47
2021/10/24 00:40:36;;;;;;;;;15.75;14.75;;;;;13.20;51.74;101864.22;2086119;28;45197;-47
2021/10/24 00:41:37;;;;;;;;;14.00;13.50;;;;;13.19;51.94;101864.25;2085681;28;45285;-50
2021/10/24 00:42:45;;;;;;;;;13.00;13.00;;;;;13.20;51.88;101858.00;2086048;28;48270;-49
2021/10/24 00:43:45;;;;;;;;;14.60;13.20;;;;;13.19;51.87;101859.78;2077568;28;47873;-46
2021/10/24 00:44:46;;;;;;;;;16.00;16.00;;;;;13.19;51.88;101856.25;2076865;28;47458;-48
2021/10/24 00:45:46;;;;;;;;;13.75;12.25;;;;;13.18;51.83;101855.38;2088088;28;48114;-50
2021/10/24 00:46:49;;;;;;;;;12.50;12.50;;;;;13.17;52.01;101852.69;2087010;28;47490;-49
2021/10/24 00:47:51;;;;;;;;;12.20;12.20;;;;;13.17;51.69;101856.25;2078136;28;46875;-50
2021/10/24 00:48:51;;;;;;;;;15.80;12.20;;;;;13.16;51.90;101851.81;2079422;28;48216;-50
2021/10/24 00:49:53;;;;;;;;;11.50;11.50;;;;;13.15;51.77;101860.72;2087026;28;46899;-49
2021/10/24 00:50:54;;;;;;;;;13.00;12.40;;;;;13.15;51.85;101857.16;2081511;28;47266;-50
2021/10/24 00:51:55;;;;;;;;;13.00;13.00;;;;;13.13;51.77;101851.88;2077697;28;48223;-49
2021/10/24 00:52:58;;;;;;;;;12.80;12.40;;;;;13.12;51.98;101850.09;2088157;28;48208;-49
2021/10/24 00:53:58;;;;;;;;;15.40;13.60;;;;;13.12;52.03;101851.88;2082229;28;46354;-52
2021/10/24 00:54:59;;;;;;;;;11.75;11.75;;;;;13.11;51.98;101851.00;2078523;28;48171;-50
2021/10/24 00:56:00;;;;;;;;;14.25;13.75;;;;;13.10;51.81;101846.59;2085690;28;47195;-46
2021/10/24 00:57:02;;;;;;;;;12.00;12.00;;;;;13.09;51.98;101847.50;2087407;28;48401;-50
2021/10/24 00:58:05;;;;;;;;;13.20;11.00;;;;;13.09;52.01;101847.50;2082030;28;47417;-49
2021/10/24 00:59:07;;;;;;;;;11.20;11.20;;;;;13.08;52.01;101843.03;2082249;28;47362;-46
2021/10/24 01:00:10;;;;;;;;;9.20;9.20;;;;;13.08;52.18;101845.69;2085546;28;47288;-49
2021/10/24 01:01:11;;;;;;;;;10.80;10.80;;;;;13.08;52.08;101848.34;2086224;28;48217;-48
2021/10/24 01:02:11;;;;;;;;;11.25;11.25;;;;;13.07;51.91;101851.06;2085716;28;45943;-47
2021/10/24 01:03:12;;;;;;;;;15.75;14.75;;;;;13.06;52.03;101846.63;2089278;28;48298;-49
2021/10/24 01:04:13;;;;;;;;;10.00;10.00;;;;;13.05;52.10;101840.41;2089519;28;48202;-52
2021/10/24 01:05:15;;;;;;;;;12.75;11.75;;;;;13.06;52.04;101847.50;2081764;28;47324;-52
2021/10/24 01:06:15;;;;;;;;;10.00;10.00;;;;;13.04;52.17;101846.66;2082304;28;45103;-52
2021/10/24 01:07:19;;;;;;;;;13.25;12.00;;;;;13.03;52.27;101844.00;2085573;28;47188;-52
2021/10/24 01:08:20;;;;;;;;;12.80;12.80;;;;;13.03;52.13;101850.22;2076634;28;47214;-49
2021/10/24 01:09:23;;;;;;;;;10.50;10.50;;;;;13.03;52.18;101841.34;2076361;28;47379;-48
2021/10/24 01:10:24;;;;;;;;;11.00;9.60;;;;;13.02;52.01;101851.13;2082140;28;48152;-48
2021/10/24 01:11:26;;;;;;;;;13.50;13.50;;;;;13.02;52.28;101842.25;2081959;28;47404;-49
2021/10/24 01:12:27;;;;;;;;;14.80;13.40;;;;;13.01;52.17;101843.16;2077744;28;47500;-49
2021/10/24 01:13:28;;;;;;;;;9.20;9.20;;;;;13.00;52.23;101839.63;2079210;28;45501;-49
2021/10/24 01:14:28;;;;;;;;;13.50;13.50;;;;;12.99;52.22;101837.84;2083822;28;47089;-50
2021/10/24 01:15:29;;;;;;;;;11.00;11.00;;;;;12.99;52.23;101845.84;2077826;28;47340;-51
2021/10/24 01:16:35;;;;;;;;;14.75;12.00;;;;;12.99;52.33;101839.63;2076369;28;48091;-49
2021/10/24 01:17:35;;;;;;;;;12.00;12.00;;;;;12.98;52.16;101837.88;2087107;28;48225;-51
2021/10/24 01:18:36;;;;;;;;;13.00;11.25;;;;;12.96;52.32;101836.13;2085526;28;48281;-46
2021/10/24 01:19:36;;;;;;;;;10.50;10.50;;;;;12.96;52.30;101830.78;2079261;28;47229;-50
2021/10/24 01:20:37;;;;;;;;;12.75;12.00;;;;;12.96;52.36;101835.25;2082005;28;47182;-47
2021/10/24 01:21:38;;;;;;;;;13.00;12.25;;;;;12.96;52.24;101832.56;2085250;28;47065;-48
2021/10/24 01:22:39;;;;;;;;;13.00;13.00;;;;;12.95;52.45;101834.31;2085705;28;47190;-49
2021/10/24 01:23:39;;;;;;;;;9.25;7.75;;;;;12.94;52.21;101834.34;2086438;28;45448;-52
2021/10/24 01:24:40;;;;;;;;;10.00;10.00;;;;;12.94;52.31;101831.69;2087040;28;47109;-47
2021/10/24 01:25:41;;;;;;;;;12.00;10.75;;;;;12.93;52.46;101841.47;2086696;28;47171;-48
2021/10/24 01:26:42;;;;;;;;;11.50;10.75;;;;;12.94;52.35;101829.03;2083606;28;47052;-51
2021/10/24 01:27:43;;;;;;;;;9.60;9.60;;;;;12.93;52.37;101829.94;2075080;28;47276;-48
2021/10/24 01:28:44;;;;;;;;;11.20;9.40;;;;;12.93;52.50;101832.59;2078017;28;48250;-50
2021/10/24 01:29:44;;;;;;;;;12.00;12.00;;;;;12.92;52.38;101829.03;2089414;28;46961;-46
2021/10/24 01:30:45;;;;;;;;;13.00;11.50;;;;;12.91;52.42;101829.06;2087764;28;48127;-49
2021/10/24 01:31:45;;;;;;;;;11.00;10.00;;;;;12.89;52.44;101829.09;2087291;28;45467;-49
2021/10/24 01:32:47;;;;;;;;;14.25;14.00;;;;;12.90;52.30;101827.31;2080682;28;48166;-46
2021/10/24 01:33:47;;;;;;;;;11.60;10.60;;;;;12.88;52.40;101823.78;2078758;28;48230;-49
2021/10/24 01:34:48;;;;;;;;;11.25;10.50;;;;;12.88;52.15;101821.13;2087780;28;47923;-49
2021/10/24 01:35:56;;;;;;;;;11.20;10.60;;;;;12.88;52.51;101822.00;2087996;28;47303;-48
2021/10/24 01:36:56;;;;;;;;;8.80;8.80;;;;;12.87;52.43;101817.59;2078970;28;45641;-51
2021/10/24 01:37:58;;;;;;;;;11.50;10.50;;;;;12.88;52.53;101818.47;2081994;28;48026;-47
2021/10/24 01:38:59;;;;;;;;;10.00;10.00;;;;;12.88;52.49;101826.47;2080358;28;46400;-47
2021/10/24 01:40:02;;;;;;;;;11.25;11.25;;;;;12.87;52.51;101819.38;2080389;28;46823;-48
2021/10/24 01:41:07;;;;;;;;;11.20;9.40;;;;;12.86;52.49;101825.59;2078771;28;47537;-49
2021/10/24 01:42:08;;;;;;;;;11.00;9.40;;;;;12.86;52.54;101817.59;2088786;28;47488;-47
2021/10/24 01:43:08;;;;;;;;;9.80;9.80;;;;;12.85;52.48;101816.72;2088527;28;48102;-47
2021/10/24 01:44:09;;;;;;;;;13.25;11.00;;;;;12.85;52.58;101807.84;2083516;28;48212;-49
2021/10/24 01:45:10;;;;;;;;;10.50;10.50;;;;;12.85;52.60;101813.19;2082938;28;48259;-50
2021/10/24 01:46:10;;;;;;;;;11.60;10.80;;;;;12.84;52.37;101806.97;2089653;28;47397;-46
2021/10/24 01:47:11;;;;;;;;;11.00;10.00;;;;;12.84;52.53;101808.75;2088505;28;46951;-50
2021/10/24 01:48:13;;;;;;;;;9.00;9.00;;;;;12.82;52.64;101799.88;2087845;28;47229;-51
2021/10/24 01:49:13;;;;;;;;;6.80;6.80;;;;;12.83;52.56;101806.97;2080471;28;47110;-51
2021/10/24 01:50:14;;;;;;;;;12.00;10.75;;;;;12.82;52.68;101799.88;2082630;28;46972;-51
2021/10/24 01:51:15;;;;;;;;;10.50;10.50;;;;;12.82;52.66;101798.09;2087818;28;47283;-49
2021/10/24 01:52:16;;;;;;;;;9.80;9.80;;;;;12.82;52.58;101800.75;2087168;28;48182;-49
2021/10/24 01:53:24;;;;;;;;;11.00;11.00;;;;;12.81;52.59;101795.47;2080335;28;47152;-48
2021/10/24 01:54:24;;;;;;;;;9.60;9.60;;;;;12.80;52.57;101797.25;2083228;28;47548;-51
2021/10/24 01:55:25;;;;;;;;;9.75;9.75;;;;;12.80;52.56;101788.38;2088290;28;47850;-49
2021/10/24 01:56:26;;;;;;;;;10.00;10.00;;;;;12.79;52.62;101792.81;2081582;28;45703;-47
2021/10/24 01:57:26;;;;;;;;;10.00;10.00;;;;;12.78;52.57;101791.06;2074850;28;45359;-47
2021/10/24 01:58:27;;;;;;;;;9.00;9.00;;;;;12.78;52.65;101784.84;2079996;28;47542;-48
2021/10/24 01:59:27;;;;;;;;;11.25;9.75;;;;;12.78;52.57;101787.50;2088098;28;47685;-50
2021/10/24 02:00:28;;;;;;;;;13.00;11.75;;;;;12.77;52.60;101781.31;2081435;28;45145;-50
2021/10/24 02:01:28;;;;;;;;;7.75;7.75;;;;;12.78;52.63;101784.84;2078972;28;47449;-49
2021/10/24 02:02:29;;;;;;;;;8.25;8.25;;;;;12.77;52.55;101783.97;2088370;28;47254;-47
2021/10/24 02:03:30;;;;;;;;;9.00;8.50;;;;;12.77;52.70;101783.09;2089823;28;47529;-47
2021/10/24 02:04:31;;;;;;;;;12.00;11.00;;;;;12.77;52.77;101777.78;2090426;28;48080;-48
2021/10/24 02:05:31;;;;;;;;;8.40;8.00;;;;;12.77;52.67;101780.44;2088155;28;45348;-47
2021/10/24 02:06:32;;;;;;;;;9.25;9.25;;;;;12.77;52.77;101772.44;2088259;28;48573;-49
2021/10/24 02:07:32;;;;;;;;;9.00;8.00;;;;;12.78;52.60;101774.19;2087444;28;46497;-48
2021/10/24 02:08:33;;;;;;;;;10.50;8.75;;;;;12.78;52.65;101776.88;2082054;28;47271;-50
2021/10/24 02:09:34;;;;;;;;;7.80;7.80;;;;;12.76;52.81;101768.91;2074864;28;48226;-49
2021/10/24 02:10:35;;;;;;;;;9.25;9.00;;;;;12.76;52.48;101760.91;2076322;28;48222;-49
2021/10/24 02:11:36;;;;;;;;;10.20;10.20;;;;;12.75;52.65;101769.81;2087300;28;47002;-50
2021/10/24 02:12:36;;;;;;;;;8.00;8.00;;;;;12.75;52.60;101766.25;2088336;28;48134;-48
2021/10/24 02:13:37;;;;;;;;;9.75;8.75;;;;;12.73;52.72;101758.28;2079905;28;47360;-50
2021/10/24 02:14:37;;;;;;;;;10.00;10.00;;;;;12.74;52.82;101764.50;2073769;28;48084;-51
2021/10/24 02:15:38;;;;;;;;;9.00;8.00;;;;;12.73;52.99;101768.94;2082995;28;48119;-48
2021/10/24 02:16:39;;;;;;;;;7.25;7.25;;;;;12.72;52.64;101759.19;2088570;28;48153;-49
2021/10/24 02:17:40;;;;;;;;;9.50;9.50;;;;;12.72;52.62;101758.31;2086865;28;47894;-50
2021/10/24 02:18:40;;;;;;;;;7.25;7.25;;;;;12.72;52.63;101756.53;2088713;28;47170;-49
2021/10/24 02:19:41;;;;;;;;;8.25;8.25;;;;;12.71;52.77;101757.44;2086627;28;47004;-50
2021/10/24 02:20:41;;;;;;;;;8.75;8.25;;;;;12.71;52.81;101748.56;2079238;28;46058;-52
2021/10/24 02:21:42;;;;;;;;;8.00;8.00;;;;;12.70;52.75;101749.44;2079936;28;48111;-51
2021/10/24 02:22:43;;;;;;;;;11.25;9.75;;;;;12.70;52.74;101749.44;2092735;28;46826;-51
2021/10/24 02:23:44;;;;;;;;;10.00;8.00;;;;;12.70;52.71;101749.44;2088636;28;47077;-48
2021/10/24 02:24:44;;;;;;;;;7.67;6.33;;;;;12.70;52.85;101752.97;2086991;28;47107;-51
2021/10/24 02:25:45;;;;;;;;;7.00;6.00;;;;;12.70;52.74;101746.78;2079393;28;48148;-52
2021/10/24 02:26:45;;;;;;;;;8.25;8.25;;;;;12.68;52.86;101742.34;2066641;28;46976;-50
2021/10/24 02:27:46;;;;;;;;;9.00;8.00;;;;;12.68;52.74;101742.34;2074828;28;47100;-50
2021/10/24 02:28:46;;;;;;;;;8.25;7.50;;;;;12.68;52.70;101739.69;2087587;28;47078;-48
2021/10/24 02:29:47;;;;;;;;;9.50;8.50;;;;;12.67;52.57;101743.25;2087904;28;47737;-52
2021/10/24 02:30:47;;;;;;;;;11.25;9.50;;;;;12.68;52.79;101749.47;2091365;28;45598;-50
2021/10/24 02:31:47;;;;;;;;;8.50;8.50;;;;;12.67;52.84;101742.38;2088171;28;47358;-47
2021/10/24 02:32:48;;;;;;;;;9.00;9.00;;;;;12.66;52.77;101738.84;2087693;28;47544;-51
2021/10/24 02:33:49;;;;;;;;;6.00;6.00;;;;;12.64;52.95;101745.09;2089803;28;47271;-48
2021/10/24 02:34:50;;;;;;;;;8.00;8.00;;;;;12.65;52.81;101741.53;2085390;28;47237;-51
2021/10/24 02:35:50;;;;;;;;;9.00;9.00;;;;;12.63;52.91;101738.88;2087480;28;47181;-51
2021/10/24 02:36:51;;;;;;;;;8.75;8.75;;;;;12.63;52.81;101740.69;2087333;28;45210;-49
2021/10/24 02:37:53;;;;;;;;;10.25;8.75;;;;;12.63;52.80;101740.69;2087097;28;47033;-47
2021/10/24 02:38:53;;;;;;;;;7.80;7.80;;;;;12.62;52.77;101734.47;2089274;28;48569;-49
2021/10/24 02:39:54;;;;;;;;;8.00;8.00;;;;;12.62;52.86;101736.25;2087753;28;47302;-50
2021/10/24 02:40:54;;;;;;;;;7.25;7.25;;;;;12.62;52.87;101737.13;2086736;28;48195;-52
2021/10/24 02:41:55;;;;;;;;;8.75;8.75;;;;;12.62;52.70;101734.47;2088030;28;47467;-50
2021/10/24 02:42:56;;;;;;;;;9.25;8.75;;;;;12.61;52.90;101730.03;2086973;28;47327;-49
2021/10/24 02:43:56;;;;;;;;;9.00;8.40;;;;;12.61;52.78;101738.03;2087220;28;46986;-49
2021/10/24 02:44:57;;;;;;;;;10.50;9.00;;;;;12.60;52.74;101736.28;2086830;28;48139;-47
2021/10/24 02:45:57;;;;;;;;;6.25;6.00;;;;;12.60;52.78;101736.28;2088506;28;48341;-50
2021/10/24 02:46:58;;;;;;;;;8.25;8.25;;;;;12.60;52.79;101732.75;2086344;28;48417;-48
2021/10/24 02:47:58;;;;;;;;;6.75;6.75;;;;;12.58;52.72;101727.44;2088181;28;47361;-48
2021/10/24 02:48:59;;;;;;;;;9.50;8.50;;;;;12.58;52.93;101726.56;2088605;28;47481;-47
2021/10/24 02:50:00;;;;;;;;;8.00;8.00;;;;;12.58;52.89;101731.88;2085918;28;47269;-47
2021/10/24 02:51:00;;;;;;;;;7.25;7.25;;;;;12.58;52.97;101729.22;2089110;28;47170;-46
2021/10/24 02:52:01;;;;;;;;;12.00;10.50;;;;;12.56;52.89;101731.88;2087196;28;48097;-47
2021/10/24 02:53:02;;;;;;;;;8.20;8.00;;;;;12.55;52.87;101724.78;2088263;28;47341;-47
2021/10/24 02:54:02;;;;;;;;;10.50;10.50;;;;;12.56;52.99;101731.88;2086294;28;48118;-47
2021/10/24 02:55:05;;;;;;;;;7.75;7.75;;;;;12.56;53.05;101731.00;2088666;28;47231;-50
2021/10/24 02:56:05;;;;;;;;;8.60;8.60;;;;;12.55;53.06;101726.56;2086224;28;47384;-47
2021/10/24 02:57:06;;;;;;;;;9.25;9.25;;;;;12.55;53.05;101727.44;2086195;28;48045;-48
2021/10/24 02:58:06;;;;;;;;;10.00;8.50;;;;;12.55;53.01;101726.56;2085098;28;47321;-50
2021/10/24 02:59:06;;;;;;;;;9.25;9.25;;;;;12.54;52.98;101723.03;2087842;28;47483;-47
2021/10/24 03:00:08;;;;;;;;;10.75;10.00;;;;;12.53;53.08;101721.28;2087106;28;47195;-47
2021/10/24 03:01:08;;;;;;;;;7.80;7.20;;;;;12.54;52.87;101722.16;2086967;28;47347;-49
2021/10/24 03:02:09;;;;;;;;;9.50;9.50;;;;;12.53;53.07;101721.28;2087437;28;47385;-47
2021/10/24 03:03:10;;;;;;;;;9.67;8.33;;;;;12.53;52.98;101715.94;2090303;28;47347;-51
2021/10/24 03:04:11;;;;;;;;;9.25;9.25;;;;;12.54;53.00;101719.50;2090148;28;46416;-49
2021/10/24 03:05:12;;;;;;;;;11.80;9.00;;;;;12.53;53.23;101715.06;2086930;28;47394;-49
2021/10/24 03:06:12;;;;;;;;;7.75;7.75;;;;;12.53;53.14;101717.72;2089039;28;47159;-49
2021/10/24 03:07:14;;;;;;;;;9.00;9.00;;;;;12.52;53.03;101714.19;2086066;28;47540;-50
2021/10/24 03:08:14;;;;;;;;;8.80;8.80;;;;;12.52;53.12;101710.66;2086523;28;47415;-48
2021/10/24 03:09:15;;;;;;;;;9.00;9.00;;;;;12.52;53.14;101711.53;2086666;28;47205;-52
2021/10/24 03:10:16;;;;;;;;;6.25;6.25;;;;;12.52;53.20;101714.19;2090411;28;47243;-50
2021/10/24 03:11:17;;;;;;;;;9.25;8.25;;;;;12.51;53.12;101715.09;2087609;28;47218;-47
2021/10/24 03:12:17;;;;;;;;;9.80;9.80;;;;;12.52;53.09;101713.31;2089196;28;46926;-51
2021/10/24 03:13:18;;;;;;;;;7.75;7.00;;;;;12.51;53.13;101716.88;2086327;28;47583;-49
2021/10/24 03:14:18;;;;;;;;;10.20;9.60;;;;;12.49;53.12;101706.25;2088391;28;47511;-47
2021/10/24 03:15:19;;;;;;;;;9.00;9.00;;;;;12.49;53.20;101702.72;2082166;28;48507;-49
2021/10/24 03:16:20;;;;;;;;;8.00;8.00;;;;;12.49;53.10;101706.25;2080000;28;48145;-48
2021/10/24 03:17:20;;;;;;;;;8.25;8.25;;;;;12.49;53.25;101714.25;2085530;28;46940;-49
2021/10/24 03:18:21;;;;;;;;;8.50;8.50;;;;;12.48;53.39;101709.81;2088415;28;47445;-47
2021/10/24 03:19:23;;;;;;;;;8.75;8.25;;;;;12.48;53.31;101708.94;2086636;28;48085;-49
2021/10/24 03:20:23;;;;;;;;;6.40;6.40;;;;;12.48;53.46;101703.63;2086069;28;48220;-49
2021/10/24 03:21:24;;;;;;;;;10.50;9.00;;;;;12.46;53.34;101706.31;2080209;28;47339;-48
2021/10/24 03:22:25;;;;;;;;;8.00;8.00;;;;;12.46;53.34;101708.97;2076969;28;48175;-49
2021/10/24 03:23:25;;;;;;;;;11.00;10.00;;;;;12.45;53.35;101700.97;2079184;28;48245;-52
2021/10/24 03:24:25;;;;;;;;;8.50;8.00;;;;;12.45;53.35;101707.22;2082107;28;46348;-48
2021/10/24 03:25:26;;;;;;;;;7.75;7.75;;;;;12.46;53.25;101713.41;2080412;28;46408;-48
2021/10/24 03:26:28;;;;;;;;;8.25;8.25;;;;;12.44;53.34;101713.41;2088928;28;48028;-50
2021/10/24 03:27:28;;;;;;;;;8.80;8.80;;;;;12.44;53.36;101713.41;2087334;28;48449;-51
2021/10/24 03:28:29;;;;;;;;;8.50;8.50;;;;;12.44;53.56;101712.53;2086973;28;47292;-49
2021/10/24 03:29:29;;;;;;;;;9.00;9.00;;;;;12.44;53.68;101713.41;2087075;28;45347;-50
2021/10/24 03:30:31;;;;;;;;;11.00;8.50;;;;;12.43;53.44;101708.09;2082256;28;48194;-48
2021/10/24 03:31:31;;;;;;;;;6.00;6.00;;;;;12.43;53.44;101701.00;2078873;28;47694;-47
2021/10/24 03:32:32;;;;;;;;;9.00;9.00;;;;;12.42;53.58;101707.22;2079837;28;47185;-49
2021/10/24 03:33:32;;;;;;;;;8.50;8.50;;;;;12.41;53.46;101708.13;2080940;28;47220;-48
2021/10/24 03:34:33;;;;;;;;;10.75;8.50;;;;;12.42;53.45;101709.00;2086922;28;48157;-49
2021/10/24 03:35:33;;;;;;;;;11.50;10.00;;;;;12.43;53.35;101710.75;2085956;28;45146;-50
2021/10/24 03:36:34;;;;;;;;;9.50;8.75;;;;;12.42;53.63;101709.88;2086295;28;45531;-49
2021/10/24 03:37:34;;;;;;;;;10.00;9.25;;;;;12.41;53.62;101713.44;2087762;28;48167;-47
2021/10/24 03:38:35;;;;;;;;;10.00;10.00;;;;;12.41;53.54;101708.13;2088501;28;45430;-47
2021/10/24 03:39:36;;;;;;;;;10.00;10.00;;;;;12.41;53.64;101712.56;2087237;28;47672;-47
2021/10/24 03:40:36;;;;;;;;;12.00;11.25;;;;;12.41;53.55;101708.13;2086427;28;47319;-51
2021/10/24 03:41:37;;;;;;;;;12.75;12.75;;;;;12.38;53.74;101706.38;2079955;28;47263;-50
2021/10/24 03:42:37;;;;;;;;;14.50;13.50;;;;;12.38;53.58;101713.50;2079941;28;45482;-51
2021/10/24 03:43:38;;;;;;;;;14.00;14.00;;;;;12.35;53.66;101719.75;2087521;28;48860;-47
2021/10/24 03:44:39;;;;;;;;;15.00;14.60;;;;;12.32;53.63;101718.88;2083031;28;47531;-50
2021/10/24 03:45:40;;;;;;;;;15.00;13.50;;;;;12.29;53.59;101717.16;2086774;28;48317;-47
2021/10/24 03:46:41;;;;;;;;;19.00;14.00;;;;;12.27;53.59;101712.75;2082105;28;48438;-49
2021/10/24 03:47:41;;;;;;;;;16.25;16.00;;;;;12.25;53.71;101718.09;2086373;28;47070;-48
2021/10/24 03:48:42;;;;;;;;;11.50;11.50;;;;;12.22;53.82;101717.28;2086779;28;48194;-50
2021/10/24 03:49:42;;;;;;;;;13.75;13.75;;;;;12.20;53.82;101725.28;2077850;28;47343;-50
2021/10/24 03:50:43;;;;;;;;;13.50;13.50;;;;;12.19;53.99;101730.59;2075738;28;47190;-52
2021/10/24 03:51:44;;;;;;;;;14.25;14.00;;;;;12.17;53.87;101724.41;2087079;28;47511;-51
2021/10/24 03:52:44;;;;;;;;;16.80;16.80;;;;;12.16;53.92;101718.19;2086533;28;47788;-51
2021/10/24 03:53:45;;;;;;;;;19.50;17.00;;;;;12.16;54.17;101722.66;2085872;28;47822;-49
2021/10/24 03:54:45;;;;;;;;;14.25;14.25;;;;;12.15;54.28;101720.88;2086313;28;46978;-48
2021/10/24 03:55:46;;;;;;;;;11.50;10.00;;;;;12.15;53.98;101720.88;2078774;28;47034;-51
2021/10/24 03:56:46;;;;;;;;;17.00;16.50;;;;;12.14;54.01;101722.66;2080952;28;47935;-51
2021/10/24 03:57:47;;;;;;;;;11.00;11.00;;;;;12.14;54.13;101725.34;2077476;28;48611;-50
2021/10/24 03:58:47;;;;;;;;;18.00;15.75;;;;;12.14;54.04;101729.78;2069423;28;46961;-52
2021/10/24 03:59:48;;;;;;;;;14.25;12.75;;;;;12.13;54.21;101733.34;2076410;28;48063;-50
2021/10/24 04:00:48;;;;;;;;;13.25;12.75;;;;;12.12;54.02;101723.59;2085172;28;47914;-48
2021/10/24 04:01:49;;;;;;;;;13.25;12.25;;;;;12.12;54.16;101723.59;2085945;28;47219;-47
2021/10/24 04:02:57;;;;;;;;;17.00;13.50;;;;;12.11;54.34;101727.16;2085994;28;45324;-50
2021/10/24 04:03:58;;;;;;;;;14.80;13.40;;;;;12.09;54.29;101729.84;2087620;28;47943;-46
2021/10/24 04:04:58;;;;;;;;;12.50;12.50;;;;;12.09;54.36;101727.19;2087079;28;47097;-46
2021/10/24 04:05:59;;;;;;;;;11.25;11.25;;;;;12.08;54.58;101723.63;2080152;28;46802;-49
2021/10/24 04:06:59;;;;;;;;;15.00;14.00;;;;;12.08;54.59;101728.09;2080400;28;46084;-47
2021/10/24 04:08:00;;;;;;;;;15.00;13.00;;;;;12.07;54.35;101727.19;2083948;28;45177;-47
2021/10/24 04:09:01;;;;;;;;;15.00;14.20;;;;;12.07;54.56;101728.97;2086117;28;45084;-48
2021/10/24 04:10:02;;;;;;;;;12.50;12.00;;;;;12.06;54.32;101722.75;2086189;28;47922;-48
2021/10/24 04:11:03;;;;;;;;;14.40;14.20;;;;;12.06;54.63;101730.72;2088059;28;47430;-48
2021/10/24 04:12:03;;;;;;;;;15.75;15.75;;;;;12.05;54.57;101731.63;2077975;28;47211;-51
2021/10/24 04:13:04;;;;;;;;;11.25;11.00;;;;;12.04;54.38;101732.53;2069451;28;47214;-49
2021/10/24 04:14:05;;;;;;;;;13.50;13.50;;;;;12.02;54.65;101734.34;2077959;28;45526;-49
2021/10/24 04:15:06;;;;;;;;;14.40;14.20;;;;;12.03;54.61;101732.56;2085095;28;47435;-48
2021/10/24 04:16:07;;;;;;;;;13.00;12.00;;;;;12.01;54.27;101737.00;2086943;28;45700;-47
2021/10/24 04:17:08;;;;;;;;;11.50;11.50;;;;;12.01;54.46;101739.69;2080689;28;48162;-50
2021/10/24 04:18:09;;;;;;;;;13.60;13.60;;;;;12.00;54.64;101729.94;2080840;28;46266;-50
2021/10/24 04:19:09;;;;;;;;;14.50;12.50;;;;;11.99;54.53;101742.34;2078069;28;47375;-52
2021/10/24 04:20:13;;;;;;;;;12.75;12.00;;;;;11.99;54.37;101738.81;2080073;28;46221;-51
2021/10/24 04:21:14;;;;;;;;;14.00;11.80;;;;;11.98;54.63;101737.94;2069286;28;45367;-47
2021/10/24 04:22:14;;;;;;;;;11.00;11.00;;;;;11.98;54.47;101734.41;2070043;28;46471;-48
2021/10/24 04:23:15;;;;;;;;;9.25;9.00;;;;;11.98;54.31;101740.59;2086769;28;48169;-52
2021/10/24 04:24:15;;;;;;;;;10.50;10.25;;;;;11.96;54.23;101737.06;2080723;28;47169;-49
2021/10/24 04:25:17;;;;;;;;;9.50;9.50;;;;;11.96;54.21;101733.53;2080840;28;46127;-48
2021/10/24 04:26:18;;;;;;;;;11.60;11.60;;;;;11.97;54.18;101735.31;2077052;28;47693;-47
2021/10/24 04:27:19;;;;;;;;;10.00;8.25;;;;;11.95;54.19;101740.63;2077521;28;48168;-50
2021/10/24 04:28:21;;;;;;;;;7.40;7.40;;;;;11.95;54.36;101739.75;2080567;28;46434;-48
2021/10/24 04:29:22;;;;;;;;;12.80;9.80;;;;;11.94;54.34;101741.53;2078143;28;47872;-50
2021/10/24 04:30:23;;;;;;;;;12.60;11.60;;;;;11.93;54.36;101738.88;2088977;28;48162;-48
2021/10/24 04:31:23;;;;;;;;;11.20;10.20;;;;;11.93;54.32;101742.41;2086685;28;47125;-47
2021/10/24 04:32:26;;;;;;;;;14.50;12.25;;;;;11.94;54.46;101737.97;2086433;28;48255;-51
2021/10/24 04:33:26;;;;;;;;;12.00;11.60;;;;;11.93;54.47;101739.75;2078441;28;47168;-50
2021/10/24 04:34:26;;;;;;;;;12.75;12.75;;;;;11.93;54.54;101737.09;2080069;28;47096;-51
2021/10/24 04:35:27;;;;;;;;;12.00;11.00;;;;;11.93;54.51;101738.88;2086859;28;47466;-50
2021/10/24 04:36:27;;;;;;;;;13.00;13.00;;;;;11.93;54.57;101737.09;2085834;28;46636;-48
2021/10/24 04:37:28;;;;;;;;;10.00;10.00;;;;;11.94;54.32;101740.63;2085761;28;47416;-49
2021/10/24 04:38:31;;;;;;;;;10.75;9.75;;;;;11.94;54.36;101740.63;2086858;28;46063;-47